createdAt,value
2023-03-07T00:02:17.521Z,77.05
2023-03-07T00:04:46.213Z,77.12
2023-03-07T00:07:13.307Z,76.68
2023-03-07T00:09:39.949Z,76.74
2023-03-07T00:12:08.478Z,77.75
2023-03-07T00:14:35.450Z,79.50
2023-03-07T00:17:02.166Z,81.90
2023-03-07T00:19:28.918Z,81.92
2023-03-07T00:21:55.524Z,82.55
2023-03-07T00:24:22.133Z,82.51
2023-03-07T00:26:48.693Z,83.56
2023-03-07T00:29:15.307Z,83.79
2023-03-07T00:31:41.997Z,84.01
2023-03-07T00:34:08.847Z,84.09
2023-03-07T00:36:38.677Z,83.82
2023-03-07T00:39:05.360Z,83.63
2023-03-07T00:41:31.927Z,83.54
2023-03-07T00:43:58.514Z,83.57
2023-03-07T00:46:26.013Z,83.34
2023-03-07T00:48:53.297Z,83.47
2023-03-07T00:51:21.310Z,83.60
2023-03-07T00:53:48.672Z,83.29
2023-03-07T00:56:18.878Z,83.19
2023-03-07T00:58:46.942Z,83.73
2023-03-07T01:01:17.129Z,83.55
2023-03-07T01:03:44.504Z,83.30
2023-03-07T01:06:15.526Z,84.13
2023-03-07T01:08:42.534Z,84.35
2023-03-07T01:11:10.637Z,83.36
2023-03-07T01:13:37.822Z,83.90
2023-03-07T01:16:16.672Z,84.62
2023-03-07T01:18:44.613Z,84.95
2023-03-07T01:21:14.232Z,84.97
2023-03-07T01:23:40.852Z,85.40
2023-03-07T01:26:07.529Z,85.00
2023-03-07T01:28:34.157Z,84.78
2023-03-07T01:31:01.040Z,85.15
2023-03-07T01:33:27.658Z,85.32
2023-03-07T01:35:54.434Z,86.25
2023-03-07T01:38:21.073Z,86.81
2023-03-07T01:40:47.697Z,87.02
2023-03-07T01:43:24.684Z,87.07
2023-03-07T01:45:51.487Z,86.73
2023-03-07T01:48:18.249Z,86.80
2023-03-07T01:50:44.982Z,87.16
2023-03-07T01:53:11.885Z,86.75
2023-03-07T01:55:38.862Z,86.84
2023-03-07T01:58:10.818Z,86.58
2023-03-07T02:00:38.837Z,87.30
2023-03-07T02:03:11.252Z,88.16
2023-03-07T02:05:47.601Z,88.75
2023-03-07T02:08:16.590Z,88.81
2023-03-07T02:10:43.492Z,88.98
2023-03-07T02:13:10.599Z,89.12
2023-03-07T02:15:37.592Z,89.27
2023-03-07T02:18:05.846Z,89.29
2023-03-07T02:20:36.796Z,90.19
2023-03-07T02:23:04.787Z,89.65
2023-03-07T02:26:03.322Z,89.58
2023-03-07T02:28:30.514Z,89.40
2023-03-07T02:31:00.332Z,89.71
2023-03-07T02:33:27.328Z,89.86
2023-03-07T02:35:59.866Z,89.54
2023-03-07T02:38:26.591Z,89.50
2023-03-07T02:40:55.517Z,89.56
2023-03-07T02:43:22.982Z,89.09
2023-03-07T02:45:49.980Z,88.70
2023-03-07T02:48:16.729Z,89.45
2023-03-07T02:50:43.310Z,88.87
2023-03-07T02:53:09.936Z,89.37
2023-03-07T02:55:36.497Z,89.21
2023-03-07T02:58:03.084Z,90.04
2023-03-07T03:00:30.245Z,89.92
2023-03-07T03:02:56.864Z,90.55
2023-03-07T03:05:23.520Z,90.73
2023-03-07T03:07:50.177Z,90.14
2023-03-07T03:10:17.379Z,90.52
2023-03-07T03:12:44.529Z,91.04
2023-03-07T03:15:12.133Z,91.25
2023-03-07T03:17:39.359Z,90.68
2023-03-07T03:20:11.694Z,91.10
2023-03-07T03:22:40.646Z,90.90
2023-03-07T03:25:10.007Z,91.21
2023-03-07T03:27:38.181Z,90.93
2023-03-07T03:30:06.791Z,91.71
2023-03-07T03:32:33.677Z,91.15
2023-03-07T03:35:00.495Z,91.45
2023-03-07T03:37:27.257Z,91.23
2023-03-07T03:39:54.470Z,91.09
2023-03-07T03:42:21.085Z,91.23
2023-03-07T03:44:47.706Z,92.32
2023-03-07T03:47:14.322Z,91.58
2023-03-07T03:49:41.256Z,91.25
2023-03-07T03:52:08.040Z,91.10
2023-03-07T03:54:34.891Z,91.11
2023-03-07T03:57:01.503Z,91.23
2023-03-07T03:59:28.138Z,91.93
2023-03-07T04:01:55.337Z,92.08
2023-03-07T04:04:22.760Z,92.80
2023-03-07T04:06:49.389Z,91.91
2023-03-07T04:09:15.977Z,92.77
2023-03-07T04:11:42.543Z,92.99
2023-03-07T04:14:09.146Z,93.14
2023-03-07T04:16:35.787Z,92.91
2023-03-07T04:19:02.802Z,92.35
2023-03-07T04:21:29.424Z,92.25
2023-03-07T04:23:58.332Z,92.29
2023-03-07T04:26:24.982Z,93.57
2023-03-07T04:28:51.629Z,93.56
2023-03-07T04:31:23.825Z,93.04
2023-03-07T04:33:55.616Z,93.41
2023-03-07T04:36:23.386Z,92.94
2023-03-07T04:38:53.600Z,92.93
2023-03-07T04:41:23.533Z,93.81
2023-03-07T04:43:50.175Z,93.59
2023-03-07T04:46:18.650Z,93.27
2023-03-07T04:48:46.301Z,92.78
2023-03-07T04:51:13.496Z,92.38
2023-03-07T04:53:40.203Z,91.85
2023-03-07T04:56:08.436Z,92.02
2023-03-07T04:58:35.565Z,92.49
2023-03-07T05:01:03.685Z,91.69
2023-03-07T05:03:30.788Z,92.77
2023-03-07T05:06:02.704Z,91.83
2023-03-07T05:08:29.639Z,92.31
2023-03-07T05:10:57.921Z,92.67
2023-03-07T05:13:24.601Z,92.72
2023-03-07T05:15:53.186Z,93.19
2023-03-07T05:18:20.181Z,93.85
2023-03-07T05:20:47.443Z,93.58
2023-03-07T05:23:14.172Z,93.68
2023-03-07T05:25:43.174Z,93.58
2023-03-07T05:28:10.636Z,92.94
2023-03-07T05:30:37.241Z,93.60
2023-03-07T05:33:03.903Z,93.15
2023-03-07T05:35:30.731Z,93.64
2023-03-07T05:37:57.348Z,93.21
2023-03-07T05:40:24.731Z,92.96
2023-03-07T05:42:51.448Z,93.06
2023-03-07T05:45:18.179Z,93.06
2023-03-07T05:47:44.789Z,92.94
2023-03-07T05:50:11.819Z,92.92
2023-03-07T05:52:38.512Z,93.02
2023-03-07T05:55:05.699Z,92.54
2023-03-07T05:57:32.612Z,92.87
2023-03-07T05:59:59.217Z,92.97
2023-03-07T06:02:25.882Z,92.99
2023-03-07T06:04:52.482Z,93.14
2023-03-07T06:07:19.124Z,93.63
2023-03-07T06:09:45.743Z,93.88
2023-03-07T06:12:12.331Z,94.07
2023-03-07T06:14:38.925Z,93.85
2023-03-07T06:17:05.978Z,93.60
2023-03-07T06:19:32.678Z,93.81
2023-03-07T06:21:59.504Z,94.03
2023-03-07T06:24:26.059Z,94.24
2023-03-07T06:26:52.778Z,93.98
2023-03-07T06:29:19.368Z,93.66
2023-03-07T06:31:46.007Z,93.76
2023-03-07T06:34:12.987Z,94.27
2023-03-07T06:36:40.367Z,93.53
2023-03-07T06:39:07.549Z,93.69
2023-03-07T06:41:34.180Z,94.48
2023-03-07T06:44:00.856Z,95.02
2023-03-07T06:46:27.675Z,95.30
2023-03-07T06:48:55.220Z,95.75
2023-03-07T06:51:22.117Z,95.97
2023-03-07T06:53:48.678Z,95.32
2023-03-07T06:56:15.533Z,95.14
2023-03-07T06:58:42.109Z,93.62
2023-03-07T07:01:15.928Z,92.86
2023-03-07T07:03:42.576Z,92.81
2023-03-07T07:06:09.201Z,92.69
2023-03-07T07:08:35.886Z,92.60
2023-03-07T07:11:02.473Z,92.45
2023-03-07T07:13:29.118Z,91.56
2023-03-07T07:15:55.745Z,91.01
2023-03-07T07:18:22.379Z,90.40
2023-03-07T07:20:56.542Z,89.46
2023-03-07T07:23:23.249Z,88.41
2023-03-07T07:25:49.827Z,88.35
2023-03-07T07:28:16.423Z,87.73
2023-03-07T07:30:43.414Z,87.59
2023-03-07T07:33:10.088Z,87.13
2023-03-07T07:35:36.995Z,87.08
2023-03-07T07:38:03.878Z,87.30
2023-03-07T07:40:30.748Z,87.12
2023-03-07T07:42:57.422Z,87.81
2023-03-07T07:45:24.404Z,87.58
2023-03-07T07:47:52.005Z,86.99
2023-03-07T07:50:20.392Z,86.70
2023-03-07T07:52:47.723Z,85.29
2023-03-07T07:55:14.931Z,85.25
2023-03-07T07:57:42.379Z,85.17
2023-03-07T08:00:11.692Z,84.30
2023-03-07T08:02:38.863Z,83.29
2023-03-07T08:05:07.993Z,83.04
2023-03-07T08:07:34.616Z,82.67
2023-03-07T08:10:01.176Z,81.04
2023-03-07T08:12:28.102Z,77.71
2023-03-07T08:14:54.778Z,77.23
2023-03-07T08:17:21.355Z,77.01
2023-03-07T08:19:47.962Z,76.10
2023-03-07T08:22:14.586Z,76.00
2023-03-07T08:24:41.300Z,73.72
2023-03-07T08:27:09.073Z,72.85
2023-03-07T08:29:35.741Z,72.13
2023-03-07T08:32:02.451Z,70.83
2023-03-07T08:34:33.593Z,69.24
2023-03-07T08:37:00.193Z,69.33
2023-03-07T08:39:30.035Z,70.41
2023-03-07T08:41:56.932Z,68.70
2023-03-07T08:44:23.668Z,68.37
2023-03-07T08:46:50.219Z,69.14
2023-03-07T08:49:16.922Z,67.59
2023-03-07T08:51:43.534Z,66.46
2023-03-07T08:54:10.122Z,66.48
2023-03-07T08:56:36.719Z,66.54
2023-03-07T08:59:03.334Z,64.62
2023-03-07T09:01:29.971Z,65.33
2023-03-07T09:03:56.668Z,65.76
2023-03-07T09:06:24.072Z,66.29
2023-03-07T09:08:51.000Z,65.15
2023-03-07T09:11:18.234Z,63.70
2023-03-07T09:13:51.913Z,63.68
2023-03-07T09:16:21.091Z,63.93
2023-03-07T09:18:47.794Z,64.81
2023-03-07T09:21:14.633Z,64.62
2023-03-07T09:23:43.316Z,63.12
2023-03-07T09:26:10.321Z,60.47
2023-03-07T09:28:36.909Z,57.22
2023-03-07T09:31:08.839Z,57.38
2023-03-07T09:33:35.545Z,58.29
2023-03-07T09:36:05.836Z,58.78
2023-03-07T09:38:32.564Z,57.74
2023-03-07T09:41:14.606Z,55.62
2023-03-07T09:43:51.609Z,56.00
2023-03-07T09:46:28.671Z,54.64
2023-03-07T09:49:15.120Z,55.45
2023-03-07T09:51:44.054Z,53.87
2023-03-07T09:54:16.188Z,54.43
2023-03-07T09:56:50.271Z,53.89
2023-03-07T09:59:34.061Z,53.75
2023-03-07T10:02:06.120Z,53.35
2023-03-07T10:04:46.974Z,54.09
2023-03-07T10:07:16.011Z,52.89
2023-03-07T10:09:45.560Z,52.53
2023-03-07T10:12:42.582Z,51.76
2023-03-07T10:15:30.284Z,52.45
2023-03-07T10:18:10.265Z,52.83
2023-03-07T10:20:45.086Z,51.81
2023-03-07T10:23:24.757Z,52.13
2023-03-07T10:26:15.098Z,52.19
2023-03-07T10:28:44.648Z,52.61
2023-03-07T10:31:26.540Z,52.35
2023-03-07T10:33:54.976Z,52.84
2023-03-07T10:36:29.477Z,52.06
2023-03-07T10:39:03.564Z,51.65
2023-03-07T10:41:30.542Z,52.70
2023-03-07T10:43:57.753Z,51.85
2023-03-07T10:46:28.228Z,51.96
2023-03-07T10:49:03.664Z,51.96
2023-03-07T10:51:53.307Z,51.75
2023-03-07T10:54:24.214Z,51.62
2023-03-07T10:57:02.815Z,51.41
2023-03-07T10:59:29.434Z,50.01
2023-03-07T11:01:58.994Z,50.89
2023-03-07T11:04:28.369Z,51.21
2023-03-07T11:07:02.446Z,49.95
2023-03-07T11:09:34.820Z,49.39
2023-03-07T11:12:20.139Z,50.26
2023-03-07T11:14:49.462Z,50.92
2023-03-07T11:17:27.654Z,50.30
2023-03-07T11:19:56.145Z,51.28
2023-03-07T11:22:36.660Z,49.21
2023-03-07T11:25:19.038Z,49.66
2023-03-07T11:27:45.644Z,50.00
2023-03-07T11:30:30.469Z,49.55
2023-03-07T11:33:08.161Z,49.48
2023-03-07T11:35:49.823Z,49.07
2023-03-07T11:38:28.327Z,49.88
2023-03-07T11:41:10.050Z,49.18
2023-03-07T11:43:52.855Z,49.21
2023-03-07T11:46:52.454Z,49.05
2023-03-07T11:49:37.361Z,49.71
2023-03-07T11:52:20.146Z,47.86
2023-03-07T11:55:15.573Z,48.87
2023-03-07T11:58:12.631Z,48.39
2023-03-07T12:00:52.173Z,48.48
2023-03-07T12:03:20.747Z,48.65
2023-03-07T12:06:10.612Z,47.07
2023-03-07T12:08:51.368Z,47.67
2023-03-07T12:11:38.910Z,47.78
2023-03-07T12:14:21.941Z,47.83
2023-03-07T12:17:03.766Z,48.58
2023-03-07T12:19:53.912Z,48.34
2023-03-07T12:22:28.500Z,47.23
2023-03-07T12:25:09.241Z,48.38
2023-03-07T12:27:41.821Z,47.80
2023-03-07T12:30:23.337Z,48.70
2023-03-07T12:32:51.353Z,47.95
2023-03-07T12:35:26.797Z,48.78
2023-03-07T12:38:04.595Z,47.50
2023-03-07T12:40:44.613Z,47.33
2023-03-07T12:43:30.152Z,47.84
2023-03-07T12:46:12.230Z,46.69
2023-03-07T12:48:47.629Z,47.92
2023-03-07T12:51:22.249Z,48.43
2023-03-07T12:53:57.738Z,46.25
2023-03-07T12:56:34.082Z,46.90
2023-03-07T12:59:02.637Z,47.06
2023-03-07T13:01:32.434Z,46.04
2023-03-07T13:04:26.613Z,47.01
2023-03-07T13:06:55.932Z,46.04
2023-03-07T13:09:24.205Z,45.88
2023-03-07T13:12:24.676Z,45.46
2023-03-07T13:15:04.801Z,45.97
2023-03-07T13:17:31.538Z,44.75
2023-03-07T13:20:14.519Z,44.29
2023-03-07T13:22:41.062Z,45.43
2023-03-07T13:25:23.907Z,44.96
2023-03-07T13:27:54.048Z,45.58
2023-03-07T13:30:30.124Z,46.03
2023-03-07T13:33:01.213Z,45.45
2023-03-07T13:35:28.984Z,45.94
2023-03-07T13:38:03.668Z,45.52
2023-03-07T13:40:46.643Z,45.70
2023-03-07T13:43:28.680Z,45.25
2023-03-07T13:45:58.494Z,45.04
2023-03-07T13:48:25.261Z,44.86
2023-03-07T13:50:51.832Z,45.10
2023-03-07T13:53:36.507Z,45.14
2023-03-07T13:56:19.935Z,45.76
2023-03-07T13:58:53.188Z,45.30
2023-03-07T14:01:23.662Z,44.73
2023-03-07T14:03:54.641Z,45.08
2023-03-07T14:06:32.196Z,45.41
2023-03-07T14:09:02.568Z,43.70
2023-03-07T14:11:51.824Z,44.27
2023-03-07T14:14:49.590Z,44.12
2023-03-07T14:17:29.386Z,45.00
2023-03-07T14:20:24.764Z,44.94
2023-03-07T14:23:06.644Z,45.81
2023-03-07T14:25:36.489Z,45.00
2023-03-07T14:28:19.734Z,44.26
2023-03-07T14:30:58.946Z,45.44
2023-03-07T14:33:34.751Z,43.98
2023-03-07T14:36:04.904Z,43.98
2023-03-07T14:38:32.966Z,44.58
2023-03-07T14:41:06.827Z,45.21
2023-03-07T14:43:55.174Z,45.15
2023-03-07T14:46:26.133Z,44.68
2023-03-07T14:48:56.998Z,44.58
2023-03-07T14:51:27.131Z,43.86
2023-03-07T14:53:55.019Z,45.41
2023-03-07T14:56:27.356Z,45.05
2023-03-07T14:58:59.766Z,45.33
2023-03-07T15:01:32.098Z,45.28
2023-03-07T15:03:58.900Z,45.55
2023-03-07T15:06:27.940Z,46.32
2023-03-07T15:08:57.360Z,45.83
2023-03-07T15:11:38.141Z,46.72
2023-03-07T15:14:13.182Z,45.86
2023-03-07T15:16:44.145Z,46.85
2023-03-07T15:19:23.019Z,46.91
2023-03-07T15:21:55.106Z,47.54
2023-03-07T15:24:30.224Z,47.59
2023-03-07T15:26:58.332Z,47.71
2023-03-07T15:29:28.625Z,49.06
2023-03-07T15:32:03.941Z,47.91
2023-03-07T15:34:34.356Z,47.74
2023-03-07T15:37:20.550Z,49.02
2023-03-07T15:39:55.894Z,48.52
2023-03-07T15:42:22.826Z,48.87
2023-03-07T15:44:54.351Z,48.93
2023-03-07T15:47:21.450Z,49.88
2023-03-07T15:49:51.075Z,49.52
2023-03-07T15:52:22.037Z,49.30
2023-03-07T15:54:52.737Z,49.31
2023-03-07T15:57:23.351Z,50.16
2023-03-07T15:59:55.799Z,50.17
2023-03-07T16:02:39.931Z,50.79
2023-03-07T16:05:28.764Z,49.77
2023-03-07T16:07:57.313Z,49.89
2023-03-07T16:10:28.191Z,50.36
2023-03-07T16:12:55.559Z,50.00
2023-03-07T16:15:23.870Z,50.94
2023-03-07T16:17:55.002Z,50.63
2023-03-07T16:20:26.930Z,50.70
2023-03-07T16:22:53.789Z,50.70
2023-03-07T16:25:22.083Z,51.30
2023-03-07T16:27:53.268Z,51.21
2023-03-07T16:30:23.797Z,51.37
2023-03-07T16:32:50.821Z,51.97
2023-03-07T16:35:27.503Z,51.98
2023-03-07T16:37:55.151Z,52.62
2023-03-07T16:40:22.892Z,53.08
2023-03-07T16:42:53.687Z,52.16
2023-03-07T16:45:24.819Z,52.72
2023-03-07T16:47:53.515Z,52.24
2023-03-07T16:50:25.584Z,52.66
2023-03-07T16:52:52.291Z,53.30
2023-03-07T16:55:19.961Z,52.90
2023-03-07T16:57:51.161Z,53.38
2023-03-07T17:00:20.938Z,52.88
2023-03-07T17:02:48.969Z,53.88
2023-03-07T17:05:21.198Z,53.94
2023-03-07T17:07:47.868Z,53.60
2023-03-07T17:10:15.019Z,53.55
2023-03-07T17:12:42.593Z,54.39
2023-03-07T17:15:14.295Z,56.12
2023-03-07T17:17:41.828Z,57.40
2023-03-07T17:20:11.969Z,57.41
2023-03-07T17:22:38.653Z,58.59
2023-03-07T17:25:05.776Z,58.49
2023-03-07T17:27:34.948Z,59.87
2023-03-07T17:30:01.697Z,60.23
2023-03-07T17:32:28.386Z,60.32
2023-03-07T17:34:55.023Z,60.54
2023-03-07T17:37:22.049Z,61.11
2023-03-07T17:39:48.775Z,61.11
2023-03-07T17:42:15.412Z,61.88
2023-03-07T17:44:42.096Z,62.95
2023-03-07T17:47:08.777Z,63.32
2023-03-07T17:49:38.121Z,63.37
2023-03-07T17:52:06.269Z,63.67
2023-03-07T17:54:33.341Z,64.63
2023-03-07T17:57:00.933Z,65.46
2023-03-07T17:59:27.646Z,65.82
2023-03-07T18:01:54.415Z,65.81
2023-03-07T18:04:21.051Z,65.87
2023-03-07T18:06:48.096Z,65.32
2023-03-07T18:09:15.384Z,66.20
2023-03-07T18:11:42.120Z,66.16
2023-03-07T18:14:08.739Z,66.39
2023-03-07T18:16:35.325Z,66.48
2023-03-07T18:19:04.773Z,67.35
2023-03-07T18:21:32.288Z,66.71
2023-03-07T18:23:58.890Z,67.09
2023-03-07T18:26:25.913Z,67.37
2023-03-07T18:28:54.181Z,67.15
2023-03-07T18:31:25.228Z,68.24
2023-03-07T18:33:53.055Z,67.78
2023-03-07T18:36:21.589Z,67.54
2023-03-07T18:38:49.013Z,68.78
2023-03-07T18:41:19.273Z,69.21
2023-03-07T18:43:46.131Z,70.08
2023-03-07T18:46:16.564Z,69.67
2023-03-07T18:48:43.326Z,67.12
2023-03-07T18:51:13.307Z,65.72
2023-03-07T18:53:40.805Z,63.96
2023-03-07T18:56:12.928Z,63.78
2023-03-07T18:58:40.511Z,63.30
2023-03-07T19:01:10.588Z,63.08
2023-03-07T19:03:37.256Z,62.94
2023-03-07T19:06:03.959Z,63.14
2023-03-07T19:08:30.789Z,62.92
2023-03-07T19:10:57.455Z,63.09
2023-03-07T19:13:24.072Z,63.30
2023-03-07T19:15:50.664Z,63.04
2023-03-07T19:18:17.250Z,63.04
2023-03-07T19:20:43.862Z,62.71
2023-03-07T19:23:10.433Z,62.56
2023-03-07T19:25:37.109Z,61.84
2023-03-07T19:28:03.690Z,61.94
2023-03-07T19:30:32.951Z,61.92
2023-03-07T19:32:59.587Z,62.09
2023-03-07T19:35:26.195Z,62.47
2023-03-07T19:37:52.785Z,62.85
2023-03-07T19:40:19.477Z,62.97
2023-03-07T19:42:47.381Z,62.69
2023-03-07T19:45:13.965Z,62.77
2023-03-07T19:47:40.543Z,62.04
2023-03-07T19:50:07.652Z,63.01
2023-03-07T19:52:34.278Z,63.37
2023-03-07T19:55:00.823Z,64.81
2023-03-07T19:57:27.425Z,65.89
2023-03-07T19:59:54.312Z,66.32
2023-03-07T20:02:22.276Z,66.28
2023-03-07T20:04:49.754Z,67.49
2023-03-07T20:07:16.523Z,67.85
2023-03-07T20:09:43.121Z,67.93
2023-03-07T20:12:10.277Z,67.49
2023-03-07T20:14:42.636Z,67.77
2023-03-07T20:17:11.144Z,67.62
2023-03-07T20:19:38.564Z,67.18
2023-03-07T20:22:05.811Z,68.10
2023-03-07T20:24:33.290Z,69.11
2023-03-07T20:27:00.410Z,69.56
2023-03-07T20:29:36.816Z,69.57
2023-03-07T20:32:20.385Z,69.24
2023-03-07T20:35:09.893Z,69.81
2023-03-07T20:37:53.349Z,69.71
2023-03-07T20:40:21.453Z,69.99
2023-03-07T20:43:08.976Z,70.02
2023-03-07T20:45:38.784Z,70.87
2023-03-07T20:48:05.364Z,70.83
2023-03-07T20:50:46.843Z,71.46
2023-03-07T20:53:30.813Z,71.96
2023-03-07T20:56:03.277Z,72.72
2023-03-07T20:58:30.920Z,72.00
2023-03-07T21:01:04.615Z,71.78
2023-03-07T21:03:31.256Z,71.36
2023-03-07T21:06:00.486Z,70.58
2023-03-07T21:08:29.319Z,70.08
2023-03-07T21:11:19.727Z,70.17
2023-03-07T21:13:54.909Z,69.60
2023-03-07T21:16:34.115Z,68.86
2023-03-07T21:19:21.109Z,68.57
2023-03-07T21:22:02.064Z,68.62
2023-03-07T21:24:46.761Z,67.98
2023-03-07T21:27:31.932Z,67.79
2023-03-07T21:30:14.043Z,67.95
2023-03-07T21:32:49.080Z,67.90
2023-03-07T21:35:26.760Z,67.44
2023-03-07T21:37:53.414Z,67.22
2023-03-07T21:40:21.672Z,67.78
2023-03-07T21:42:48.278Z,68.33
2023-03-07T21:45:15.090Z,68.29
2023-03-07T21:47:41.690Z,68.47
2023-03-07T21:50:09.021Z,68.86
2023-03-07T21:52:35.605Z,68.93
2023-03-07T21:55:02.210Z,68.99
2023-03-07T21:57:29.468Z,69.02
2023-03-07T21:59:56.075Z,69.20
2023-03-07T22:02:23.082Z,69.72
2023-03-07T22:04:50.611Z,70.08
2023-03-07T22:07:17.257Z,69.68
2023-03-07T22:09:43.865Z,69.71
2023-03-07T22:12:10.434Z,69.32
2023-03-07T22:14:37.062Z,69.56
2023-03-07T22:17:03.699Z,70.05
2023-03-07T22:19:30.299Z,69.92
2023-03-07T22:21:56.913Z,70.11
2023-03-07T22:24:23.534Z,69.76
2023-03-07T22:26:50.162Z,70.06
2023-03-07T22:29:16.790Z,70.39
2023-03-07T22:31:43.445Z,70.13
2023-03-07T22:34:10.069Z,70.57
2023-03-07T22:36:36.708Z,70.29
2023-03-07T22:39:03.723Z,70.27
2023-03-07T22:41:48.633Z,70.99
2023-03-07T22:44:30.480Z,70.34
2023-03-07T22:47:14.184Z,70.72
2023-03-07T22:49:58.574Z,70.83
2023-03-07T22:52:25.452Z,70.43
2023-03-07T22:54:54.258Z,69.69
2023-03-07T22:57:26.380Z,68.29
2023-03-07T23:00:09.060Z,67.83
2023-03-07T23:02:48.851Z,67.44
2023-03-07T23:05:31.602Z,67.52
2023-03-07T23:08:11.346Z,66.91
2023-03-07T23:10:59.552Z,66.87
2023-03-07T23:13:38.247Z,67.29
2023-03-07T23:16:24.652Z,67.65
2023-03-07T23:19:09.356Z,68.59
2023-03-07T23:21:51.084Z,69.50
2023-03-07T23:24:34.001Z,69.92
2023-03-07T23:27:15.789Z,70.85
2023-03-07T23:29:51.919Z,70.80
2023-03-07T23:32:36.268Z,70.03
2023-03-07T23:35:20.568Z,69.74
2023-03-07T23:38:04.416Z,70.86
2023-03-07T23:40:55.513Z,71.29
2023-03-07T23:43:34.293Z,70.78
2023-03-07T23:46:13.362Z,71.73
2023-03-07T23:48:59.821Z,70.85
2023-03-07T23:51:46.707Z,70.34
2023-03-07T23:54:30.472Z,70.12
2023-03-07T23:57:13.890Z,70.41
2023-03-07T23:59:52.587Z,70.56
